American Star — WDD7311 — position and weather

sailwx.info

Track history (hours):
 
Tides and Currents Weather Stations Pressure Air Temp Water Temp Dewpoint Dewpoint Depression Visibility Wind Speed Wind Dir Waves Ship Positions

American Star

Owner: American Cruise Lines, Inc, Delmar, DE. More information available from US FCC via Universal Licensing System and Coast Guard Vessel Documentation Center.

Last reported at 2016-May-04 22:11 UTC. Time now 2016-May-06 18:41 UTC.
Position N 32°16' W 080°42'.

Length 60 m; draft 2.1 m.

Type: Ship (hazmat cat C). MMSI: 367184740.

Date/timePositionNaut miles runAvg speedWind from/ knotsBaromVisibWave heightAir tempDewpointWater temp
2016-May-04 22:11N 32°16' W 080°42'4 7.0
2016-May-04 21:33N 32°13' W 080°46'6 5.3
2016-May-04 20:30N 32°08' W 080°49'0 0.0
2016-May-04 19:33N 32°08' W 080°49'0 0.0
2016-May-04 18:33N 32°08' W 080°49'0 0.0
2016-May-04 17:33N 32°08' W 080°49'0 0.0
2016-May-04 16:27N 32°08' W 080°49'0 0.0
2016-May-04 15:33N 32°08' W 080°49'0 0.0
2016-May-04 14:33N 32°08' W 080°49'5 4.6
2016-May-04 13:34N 32°06' W 080°54'5 5.4
2016-May-04 12:33N 32°06' W 081°00'5 4.4
2016-May-04 11:32N 32°05' W 081°05'0 0.0
2016-May-04 10:32N 32°05' W 081°05'0 0.0
2016-May-04 09:32N 32°05' W 081°05'0 0.0
2016-May-04 08:32N 32°05' W 081°05'0 0.0
2016-May-04 07:32N 32°05' W 081°05'0 0.0
2016-May-04 06:32N 32°05' W 081°05'0 0.0
2016-May-04 05:32N 32°05' W 081°05'0 0.0
2016-May-04 04:32N 32°05' W 081°05'0 0.0
2016-May-04 03:32N 32°05' W 081°05'0 0.0
2016-May-04 02:32N 32°05' W 081°05'0 0.0
2016-May-04 01:32N 32°05' W 081°05'0 0.0
2016-May-04 00:32N 32°05' W 081°05'0 0.0
2016-May-03 23:32N 32°05' W 081°05'0 0.0
2016-May-03 22:32N 32°05' W 081°05'0 0.0
2016-May-03 21:32N 32°05' W 081°05'0 0.0
2016-May-03 20:32N 32°05' W 081°05'0 0.0
2016-May-03 19:32N 32°05' W 081°05'0 0.0
2016-May-03 18:32N 32°05' W 081°05'0 0.0
2016-May-03 17:32N 32°05' W 081°05'0 0.0
2016-May-03 16:32N 32°05' W 081°05'0 0.0
2016-May-03 15:32N 32°05' W 081°05'0 0.0
2016-May-03 14:32N 32°05' W 081°05'0 0.0
2016-May-03 13:32N 32°05' W 081°05'0 0.0
2016-May-03 12:32N 32°05' W 081°05'0 0.0
2016-May-03 11:32N 32°05' W 081°05'0 0.0
2016-May-03 10:32N 32°05' W 081°05'0 0.0
2016-May-03 09:32N 32°05' W 081°05'0 0.0
2016-May-03 08:32N 32°05' W 081°05'0 0.0
2016-May-03 07:32N 32°05' W 081°05'0 0.0
2016-May-03 06:32N 32°05' W 081°05'0 0.0
2016-May-03 05:32N 32°05' W 081°05'0 0.0
2016-May-03 04:32N 32°05' W 081°05'0 0.0
2016-May-03 03:32N 32°05' W 081°05'0 0.0
2016-May-03 02:32N 32°05' W 081°05'1 0.9
2016-May-03 01:34N 32°05' W 081°04'4 3.9
2016-May-03 00:34N 32°04' W 080°60'4 3.7
2016-May-02 23:34N 32°00' W 081°01'5 5.1
2016-May-02 22:34N 31°56' W 081°05'4 3.9
2016-May-02 21:34N 31°52' W 081°05'7 7.0
2016-May-02 20:34N 31°47' W 081°11'  
2016-Apr-27 09:30N 31°40' W 081°12'7 7.0
2016-Apr-27 08:31N 31°46' W 081°10'6 5.8
2016-Apr-27 07:34N 31°51' W 081°08'4 4.4
2016-Apr-27 06:33N 31°55' W 081°05'5 4.6
2016-Apr-27 05:34N 31°59' W 081°02'4 4.4
2016-Apr-27 04:33N 32°04' W 081°02'2 2.0
2016-Apr-27 03:34N 32°05' W 081°01'4 3.6
2016-Apr-27 02:31N 32°05' W 081°06'0 0.0
2016-Apr-27 01:31N 32°05' W 081°06'0 0.0
2016-Apr-27 00:25N 32°05' W 081°06'0 0.0
2016-Apr-26 23:31N 32°05' W 081°06'0 0.0
2016-Apr-26 22:31N 32°05' W 081°06'0 0.0
2016-Apr-26 21:31N 32°05' W 081°06'0 0.0
2016-Apr-26 20:31N 32°05' W 081°06'0 0.0
2016-Apr-26 19:31N 32°05' W 081°06'0 0.0
2016-Apr-26 18:31N 32°05' W 081°06'0 0.0
2016-Apr-26 17:31N 32°05' W 081°06'0 0.0
2016-Apr-26 16:31N 32°05' W 081°06'0 0.0
2016-Apr-26 15:28N 32°05' W 081°06'0 0.0
2016-Apr-26 14:31N 32°05' W 081°06'0 0.0
2016-Apr-26 13:31N 32°05' W 081°06'0 0.0
2016-Apr-26 12:31N 32°05' W 081°06'0 0.0
2016-Apr-26 11:31N 32°05' W 081°06'0 0.0
2016-Apr-26 10:31N 32°05' W 081°06'0 0.0
2016-Apr-26 09:31N 32°05' W 081°06'0 0.0
2016-Apr-26 08:31N 32°05' W 081°06'0 0.0
2016-Apr-26 07:31N 32°05' W 081°06'0 0.0
2016-Apr-26 06:31N 32°05' W 081°06'0 0.0
2016-Apr-26 05:31N 32°05' W 081°06'0 0.0
2016-Apr-26 04:28N 32°05' W 081°06'0 0.0
2016-Apr-26 03:31N 32°05' W 081°06'0 0.0
2016-Apr-26 02:31N 32°05' W 081°06'0 0.0
2016-Apr-26 01:31N 32°05' W 081°06'0 0.0
2016-Apr-26 00:31N 32°05' W 081°06'0 0.0
2016-Apr-25 23:31N 32°05' W 081°06'0 0.0
2016-Apr-25 22:31N 32°05' W 081°06'0 0.0
2016-Apr-25 21:33N 32°05' W 081°06'4 3.8
2016-Apr-25 20:33N 32°06' W 081°01'4 4.2
2016-Apr-25 19:33N 32°05' W 080°56'4 4.4
2016-Apr-25 18:33N 32°08' W 080°52'3 2.9
2016-Apr-25 17:33N 32°09' W 080°49'0 0.0
2016-Apr-25 16:33N 32°09' W 080°49'0 0.0
2016-Apr-25 15:33N 32°09' W 080°49'0 0.0
2016-Apr-25 14:33N 32°09' W 080°49'0 0.0
2016-Apr-25 13:33N 32°09' W 080°49'0 0.0
2016-Apr-25 12:34N 32°09' W 080°49'5 4.5
2016-Apr-25 11:33N 32°13' W 080°47'8 7.3
2016-Apr-25 10:31N 32°17' W 080°39'  
Track history (hours):
 
Tides and Currents Weather Stations Pressure Air Temp Water Temp Dewpoint Dewpoint Depression Visibility Wind Speed Wind Dir Waves Ship Positions

American Star

Owner: American Cruise Lines, Inc, Delmar, DE. More information available from US FCC via Universal Licensing System and Coast Guard Vessel Documentation Center.

Last reported at 2016-May-04 22:11 UTC. Time now 2016-May-06 18:41 UTC.
Position N 32°16' W 080°42'.

Length 60 m; draft 2.1 m.

Type: Ship (hazmat cat C). MMSI: 367184740.

Date/timePositionNaut miles runAvg speedWind from/ knotsBaromVisibWave heightAir tempDewpointWater temp
2016-May-04 22:11N 32°16' W 080°42'4 7.0
2016-May-04 21:33N 32°13' W 080°46'6 5.3
2016-May-04 20:30N 32°08' W 080°49'0 0.0
2016-May-04 19:33N 32°08' W 080°49'0 0.0
2016-May-04 18:33N 32°08' W 080°49'0 0.0
2016-May-04 17:33N 32°08' W 080°49'0 0.0
2016-May-04 16:27N 32°08' W 080°49'0 0.0
2016-May-04 15:33N 32°08' W 080°49'0 0.0
2016-May-04 14:33N 32°08' W 080°49'5 4.6
2016-May-04 13:34N 32°06' W 080°54'5 5.4
2016-May-04 12:33N 32°06' W 081°00'5 4.4
2016-May-04 11:32N 32°05' W 081°05'0 0.0
2016-May-04 10:32N 32°05' W 081°05'0 0.0
2016-May-04 09:32N 32°05' W 081°05'0 0.0
2016-May-04 08:32N 32°05' W 081°05'0 0.0
2016-May-04 07:32N 32°05' W 081°05'0 0.0
2016-May-04 06:32N 32°05' W 081°05'0 0.0
2016-May-04 05:32N 32°05' W 081°05'0 0.0
2016-May-04 04:32N 32°05' W 081°05'0 0.0
2016-May-04 03:32N 32°05' W 081°05'0 0.0
2016-May-04 02:32N 32°05' W 081°05'0 0.0
2016-May-04 01:32N 32°05' W 081°05'0 0.0
2016-May-04 00:32N 32°05' W 081°05'0 0.0
2016-May-03 23:32N 32°05' W 081°05'0 0.0
2016-May-03 22:32N 32°05' W 081°05'0 0.0
2016-May-03 21:32N 32°05' W 081°05'0 0.0
2016-May-03 20:32N 32°05' W 081°05'0 0.0
2016-May-03 19:32N 32°05' W 081°05'0 0.0
2016-May-03 18:32N 32°05' W 081°05'0 0.0
2016-May-03 17:32N 32°05' W 081°05'0 0.0
2016-May-03 16:32N 32°05' W 081°05'0 0.0
2016-May-03 15:32N 32°05' W 081°05'0 0.0
2016-May-03 14:32N 32°05' W 081°05'0 0.0
2016-May-03 13:32N 32°05' W 081°05'0 0.0
2016-May-03 12:32N 32°05' W 081°05'0 0.0
2016-May-03 11:32N 32°05' W 081°05'0 0.0
2016-May-03 10:32N 32°05' W 081°05'0 0.0
2016-May-03 09:32N 32°05' W 081°05'0 0.0
2016-May-03 08:32N 32°05' W 081°05'0 0.0
2016-May-03 07:32N 32°05' W 081°05'0 0.0
2016-May-03 06:32N 32°05' W 081°05'0 0.0
2016-May-03 05:32N 32°05' W 081°05'0 0.0
2016-May-03 04:32N 32°05' W 081°05'0 0.0
2016-May-03 03:32N 32°05' W 081°05'0 0.0
2016-May-03 02:32N 32°05' W 081°05'1 0.9
2016-May-03 01:34N 32°05' W 081°04'4 3.9
2016-May-03 00:34N 32°04' W 080°60'4 3.7
2016-May-02 23:34N 32°00' W 081°01'5 5.1
2016-May-02 22:34N 31°56' W 081°05'4 3.9
2016-May-02 21:34N 31°52' W 081°05'7 7.0
2016-May-02 20:34N 31°47' W 081°11'  
2016-Apr-27 09:30N 31°40' W 081°12'7 7.0
2016-Apr-27 08:31N 31°46' W 081°10'6 5.8
2016-Apr-27 07:34N 31°51' W 081°08'4 4.4
2016-Apr-27 06:33N 31°55' W 081°05'5 4.6
2016-Apr-27 05:34N 31°59' W 081°02'4 4.4
2016-Apr-27 04:33N 32°04' W 081°02'2 2.0
2016-Apr-27 03:34N 32°05' W 081°01'4 3.6
2016-Apr-27 02:31N 32°05' W 081°06'0 0.0
2016-Apr-27 01:31N 32°05' W 081°06'0 0.0
2016-Apr-27 00:25N 32°05' W 081°06'0 0.0
2016-Apr-26 23:31N 32°05' W 081°06'0 0.0
2016-Apr-26 22:31N 32°05' W 081°06'0 0.0
2016-Apr-26 21:31N 32°05' W 081°06'0 0.0
2016-Apr-26 20:31N 32°05' W 081°06'0 0.0
2016-Apr-26 19:31N 32°05' W 081°06'0 0.0
2016-Apr-26 18:31N 32°05' W 081°06'0 0.0
2016-Apr-26 17:31N 32°05' W 081°06'0 0.0
2016-Apr-26 16:31N 32°05' W 081°06'0 0.0
2016-Apr-26 15:28N 32°05' W 081°06'0 0.0
2016-Apr-26 14:31N 32°05' W 081°06'0 0.0
2016-Apr-26 13:31N 32°05' W 081°06'0 0.0
2016-Apr-26 12:31N 32°05' W 081°06'0 0.0
2016-Apr-26 11:31N 32°05' W 081°06'0 0.0
2016-Apr-26 10:31N 32°05' W 081°06'0 0.0
2016-Apr-26 09:31N 32°05' W 081°06'0 0.0
2016-Apr-26 08:31N 32°05' W 081°06'0 0.0
2016-Apr-26 07:31N 32°05' W 081°06'0 0.0
2016-Apr-26 06:31N 32°05' W 081°06'0 0.0
2016-Apr-26 05:31N 32°05' W 081°06'0 0.0
2016-Apr-26 04:28N 32°05' W 081°06'0 0.0
2016-Apr-26 03:31N 32°05' W 081°06'0 0.0
2016-Apr-26 02:31N 32°05' W 081°06'0 0.0
2016-Apr-26 01:31N 32°05' W 081°06'0 0.0
2016-Apr-26 00:31N 32°05' W 081°06'0 0.0
2016-Apr-25 23:31N 32°05' W 081°06'0 0.0
2016-Apr-25 22:31N 32°05' W 081°06'0 0.0
2016-Apr-25 21:33N 32°05' W 081°06'4 3.8
2016-Apr-25 20:33N 32°06' W 081°01'4 4.2
2016-Apr-25 19:33N 32°05' W 080°56'4 4.4
2016-Apr-25 18:33N 32°08' W 080°52'3 2.9
2016-Apr-25 17:33N 32°09' W 080°49'0 0.0
2016-Apr-25 16:33N 32°09' W 080°49'0 0.0
2016-Apr-25 15:33N 32°09' W 080°49'0 0.0
2016-Apr-25 14:33N 32°09' W 080°49'0 0.0
2016-Apr-25 13:33N 32°09' W 080°49'0 0.0
2016-Apr-25 12:34N 32°09' W 080°49'5 4.5
2016-Apr-25 11:33N 32°13' W 080°47'8 7.3
2016-Apr-25 10:31N 32°17' W 080°39'  

Dump ship's entire track history